Time;durP1;ratioP1;P1;durP2;ratioP2;P2;SDS_P1;SDS_P2;PMS_P1;PMS_P2;Temp;Humidity;BMP_temperature;BMP_pressure;BME280_temperature;BME280_humidity;BME280_pressure;Samples;Min_cycle;Max_cycle;Signal;HPM_P1;HPM_P2
2023/05/06 00:02:07;;;;;;;34.45;19.30;;;13.00;99.90;;;;;;4976602;28;20093;-72
2023/05/06 00:04:33;;;;;;;35.80;20.40;;;12.90;99.90;;;;;;4993550;28;20049;-72
2023/05/06 00:06:59;;;;;;;32.33;18.35;;;12.90;99.90;;;;;;4994041;28;20030;-72
2023/05/06 00:09:24;;;;;;;41.50;19.20;;;12.80;99.90;;;;;;4975586;28;20038;-73
2023/05/06 00:11:50;;;;;;;29.92;17.30;;;12.80;99.90;;;;;;4993159;28;20062;-72
2023/05/06 00:14:16;;;;;;;28.10;17.30;;;12.70;99.90;;;;;;4993517;28;20049;-72
2023/05/06 00:16:41;;;;;;;27.08;17.10;;;12.70;99.90;;;;;;4975841;28;20030;-72
2023/05/06 00:19:07;;;;;;;32.03;17.35;;;12.60;99.90;;;;;;4993119;28;20018;-73
2023/05/06 00:21:32;;;;;;;35.33;18.95;;;12.60;99.90;;;;;;4993731;28;20037;-73
2023/05/06 00:23:58;;;;;;;29.17;15.82;;;12.60;99.90;;;;;;4975953;28;20041;-71
2023/05/06 00:26:23;;;;;;;33.78;16.02;;;12.50;99.90;;;;;;4993313;28;20027;-71
2023/05/06 00:28:49;;;;;;;26.85;15.85;;;12.50;99.90;;;;;;4993102;28;20144;-72
2023/05/06 00:31:14;;;;;;;27.63;14.77;;;12.40;99.90;;;;;;4992365;28;20027;-73
2023/05/06 00:33:40;;;;;;;27.58;14.82;;;12.40;99.90;;;;;;4975303;28;20072;-72
2023/05/06 00:36:06;;;;;;;31.10;16.38;;;12.30;99.90;;;;;;4993526;28;20025;-73
2023/05/06 00:38:32;;;;;;;30.23;14.70;;;12.30;99.90;;;;;;4975279;28;20027;-73
2023/05/06 00:40:57;;;;;;;31.17;14.32;;;12.20;99.90;;;;;;4975708;28;20041;-73
2023/05/06 00:43:23;;;;;;;23.95;12.82;;;12.20;99.90;;;;;;4992805;28;20035;-73
2023/05/06 00:45:50;;;;;;;23.75;12.90;;;12.20;99.90;;;;;;4975081;28;20022;-72
2023/05/06 00:48:16;;;;;;;24.40;12.45;;;12.10;99.90;;;;;;4992895;28;20471;-72
2023/05/06 00:50:42;;;;;;;24.67;12.20;;;12.00;99.90;;;;;;4975552;28;20058;-73
2023/05/06 00:53:09;;;;;;;22.05;11.65;;;12.00;99.90;;;;;;4974408;28;20030;-74
2023/05/06 00:55:36;;;;;;;26.42;12.23;;;12.00;99.90;;;;;;4975012;28;20061;-73
2023/05/06 00:58:02;;;;;;;21.48;12.02;;;11.90;99.90;;;;;;4993094;28;20105;-72
2023/05/06 01:00:27;;;;;;;20.70;11.30;;;11.90;99.90;;;;;;4974601;28;20539;-73
2023/05/06 01:02:53;;;;;;;19.05;11.15;;;11.90;99.90;;;;;;4992296;28;20104;-72
2023/05/06 01:05:21;;;;;;;19.25;10.77;;;11.90;99.90;;;;;;4992738;28;20061;-73
2023/05/06 01:08:10;;;;;;;18.55;10.43;;;11.80;99.90;;;;;;4992039;28;20054;-73
2023/05/06 01:10:43;;;;;;;20.60;10.30;;;11.80;99.90;;;;;;4975317;28;20035;-73
2023/05/06 01:13:31;;;;;;;21.40;10.63;;;11.80;99.90;;;;;;4992075;28;20046;-73
2023/05/06 01:16:00;;;;;;;20.67;10.95;;;11.70;99.90;;;;;;4991796;28;20065;-73
2023/05/06 01:18:27;;;;;;;16.75;9.73;;;11.70;99.90;;;;;;4991602;28;20023;-73
2023/05/06 01:20:54;;;;;;;20.80;11.65;;;11.70;99.90;;;;;;4974979;28;20073;-72
2023/05/06 01:23:20;;;;;;;20.80;10.60;;;11.70;99.90;;;;;;4991728;28;20026;-72
2023/05/06 01:25:45;;;;;;;22.52;11.23;;;11.60;99.90;;;;;;4974861;28;20046;-73
2023/05/06 01:28:12;;;;;;;18.65;10.18;;;11.70;99.90;;;;;;4974961;28;20060;-73
2023/05/06 01:30:58;;;;;;;24.27;10.80;;;11.60;99.90;;;;;;4974186;28;20755;-73
2023/05/06 01:33:37;;;;;;;20.70;9.95;;;11.60;99.90;;;;;;4974618;28;20031;-72
2023/05/06 01:36:07;;;;;;;19.60;10.50;;;11.60;99.90;;;;;;4974875;28;20127;-73
2023/05/06 01:38:51;;;;;;;22.20;11.40;;;11.60;99.90;;;;;;4991432;28;20420;-73
2023/05/06 01:41:18;;;;;;;20.25;10.90;;;11.50;99.90;;;;;;4974532;28;20495;-72
2023/05/06 01:43:46;;;;;;;27.35;10.75;;;11.50;99.90;;;;;;4991898;28;20049;-73
2023/05/06 01:46:18;;;;;;;21.23;10.38;;;11.40;99.90;;;;;;4991984;28;20037;-74
2023/05/06 01:48:45;;;;;;;20.08;11.30;;;11.40;99.90;;;;;;4974178;28;20086;-72
2023/05/06 01:51:11;;;;;;;18.00;9.57;;;11.40;99.90;;;;;;4974422;28;20054;-73
2023/05/06 01:53:37;;;;;;;21.67;10.63;;;11.40;99.90;;;;;;4992364;28;20076;-74
2023/05/06 01:56:03;;;;;;;22.95;10.45;;;11.40;99.90;;;;;;4992476;28;20111;-73
2023/05/06 01:58:29;;;;;;;25.95;11.80;;;11.40;99.90;;;;;;4991591;28;20598;-73
2023/05/06 02:00:55;;;;;;;21.23;10.60;;;11.40;99.90;;;;;;4974446;28;20017;-74
2023/05/06 02:03:21;;;;;;;20.02;10.57;;;11.40;99.90;;;;;;4974829;28;20070;-73
2023/05/06 02:05:47;;;;;;;24.67;11.65;;;11.30;99.90;;;;;;4978076;28;20030;-73
2023/05/06 02:08:12;;;;;;;17.75;9.98;;;11.30;99.90;;;;;;4996323;28;20022;-73
2023/05/06 02:10:38;;;;;;;22.02;10.60;;;11.30;99.90;;;;;;4995364;28;20026;-74
2023/05/06 02:13:03;;;;;;;20.13;10.85;;;11.30;99.90;;;;;;4977943;28;20043;-75
2023/05/06 02:15:29;;;;;;;18.38;10.38;;;11.20;99.90;;;;;;4978579;28;20037;-73
2023/05/06 02:17:56;;;;;;;24.65;11.50;;;11.20;99.90;;;;;;4994815;28;20487;-73
2023/05/06 02:20:21;;;;;;;23.13;10.98;;;11.20;99.90;;;;;;4978131;28;20046;-73
2023/05/06 02:22:47;;;;;;;22.40;11.30;;;11.30;99.90;;;;;;4995690;28;20038;-73
2023/05/06 02:25:13;;;;;;;22.05;11.13;;;11.20;99.90;;;;;;4977768;28;20053;-74
2023/05/06 02:27:39;;;;;;;22.60;10.60;;;11.20;99.90;;;;;;4995527;28;20019;-74
2023/05/06 02:30:06;;;;;;;23.95;11.18;;;11.30;99.90;;;;;;4995926;28;20460;-74
2023/05/06 02:32:32;;;;;;;23.52;11.55;;;11.30;99.90;;;;;;4995090;28;20073;-74
2023/05/06 02:34:57;;;;;;;27.08;11.98;;;11.30;99.90;;;;;;4994687;28;20027;-73
2023/05/06 02:37:23;;;;;;;20.55;10.68;;;11.20;99.90;;;;;;4977547;28;20403;-74
2023/05/06 02:39:48;;;;;;;20.50;11.50;;;11.20;99.90;;;;;;4977759;28;20094;-73
2023/05/06 02:42:14;;;;;;;25.02;11.27;;;11.20;99.90;;;;;;4995074;28;20034;-73
2023/05/06 02:44:40;;;;;;;20.70;10.65;;;11.20;99.90;;;;;;4994511;28;20019;-74
2023/05/06 02:47:07;;;;;;;24.13;11.82;;;11.20;99.90;;;;;;4994877;28;20038;-73
2023/05/06 02:49:32;;;;;;;22.67;10.65;;;11.20;99.90;;;;;;4995598;28;20049;-73
2023/05/06 02:51:58;;;;;;;22.73;11.63;;;11.20;99.90;;;;;;4977460;28;20015;-73
2023/05/06 02:54:23;;;;;;;21.88;11.02;;;11.20;99.90;;;;;;4994617;28;20569;-73
2023/05/06 02:56:49;;;;;;;27.27;12.07;;;11.30;99.90;;;;;;4977579;28;20062;-74
2023/05/06 02:59:15;;;;;;;26.77;11.57;;;11.20;99.90;;;;;;4976810;28;20057;-73
2023/05/06 03:01:41;;;;;;;25.52;12.35;;;11.20;99.90;;;;;;4993643;28;20050;-73
2023/05/06 03:04:06;;;;;;;27.73;11.88;;;11.30;99.90;;;;;;4977042;28;20049;-74
2023/05/06 03:06:32;;;;;;;31.08;12.88;;;11.20;99.90;;;;;;4977843;28;20034;-73
2023/05/06 03:08:58;;;;;;;27.70;13.02;;;11.20;99.90;;;;;;4976405;28;20015;-73
2023/05/06 03:11:23;;;;;;;23.17;11.95;;;11.20;99.90;;;;;;4994475;28;20501;-73
2023/05/06 03:13:49;;;;;;;25.92;12.57;;;11.20;99.90;;;;;;4994205;28;20023;-73
2023/05/06 03:16:14;;;;;;;27.67;12.57;;;11.10;99.90;;;;;;4975358;28;20037;-74
2023/05/06 03:18:40;;;;;;;27.15;13.18;;;11.20;99.90;;;;;;4994485;28;20057;-74
2023/05/06 03:21:06;;;;;;;27.75;12.88;;;11.10;99.90;;;;;;4994058;28;20026;-75
2023/05/06 03:23:31;;;;;;;31.85;12.80;;;11.10;99.90;;;;;;4976815;28;20062;-74
2023/05/06 03:25:57;;;;;;;31.70;12.80;;;11.10;99.90;;;;;;4994364;28;20061;-73
2023/05/06 03:28:23;;;;;;;25.40;12.02;;;11.00;99.90;;;;;;4993316;28;20031;-74
2023/05/06 03:30:48;;;;;;;23.80;11.93;;;11.00;99.90;;;;;;4994011;28;20014;-73
2023/05/06 03:33:14;;;;;;;23.75;12.50;;;11.00;99.90;;;;;;4994362;28;20026;-73
2023/05/06 03:35:39;;;;;;;23.95;12.85;;;11.00;99.90;;;;;;4993505;28;20444;-74
2023/05/06 03:38:05;;;;;;;30.10;13.55;;;11.00;99.90;;;;;;4994688;28;20069;-75
2023/05/06 03:40:32;;;;;;;26.30;13.43;;;11.00;99.90;;;;;;4993892;28;20029;-74
2023/05/06 03:42:57;;;;;;;39.38;13.68;;;11.00;99.90;;;;;;4975663;28;20038;-74
2023/05/06 03:45:23;;;;;;;31.95;13.25;;;11.00;99.90;;;;;;4993682;28;20030;-73
2023/05/06 03:47:49;;;;;;;31.58;13.10;;;11.00;99.90;;;;;;4993294;28;20094;-73
2023/05/06 03:50:14;;;;;;;27.25;12.70;;;11.00;99.90;;;;;;4993824;28;20022;-74
2023/05/06 03:52:40;;;;;;;28.92;12.52;;;10.90;99.90;;;;;;4994106;28;20027;-74
2023/05/06 03:55:06;;;;;;;32.20;13.40;;;10.90;99.90;;;;;;4993950;28;20091;-74
2023/05/06 03:57:31;;;;;;;25.73;13.07;;;10.90;99.90;;;;;;4975922;28;20027;-74
2023/05/06 03:59:57;;;;;;;36.42;13.07;;;11.00;99.90;;;;;;4993713;28;20022;-74
2023/05/06 04:02:23;;;;;;;34.15;14.45;;;10.90;99.90;;;;;;4993633;28;20074;-74
2023/05/06 04:04:48;;;;;;;43.58;14.98;;;10.90;99.90;;;;;;4992594;28;20118;-74
2023/05/06 04:07:14;;;;;;;30.60;13.68;;;10.90;99.90;;;;;;4993757;28;20467;-74
2023/05/06 04:09:39;;;;;;;39.42;15.10;;;10.90;99.90;;;;;;4992898;28;20033;-75
2023/05/06 04:12:05;;;;;;;36.97;15.10;;;10.90;99.90;;;;;;4975874;28;20046;-75
2023/05/06 04:14:31;;;;;;;36.90;14.02;;;10.90;99.90;;;;;;4993295;28;20026;-74
2023/05/06 04:16:56;;;;;;;27.48;13.13;;;10.90;99.90;;;;;;4993137;28;20027;-75
2023/05/06 04:19:22;;;;;;;28.40;13.63;;;10.90;99.90;;;;;;4992490;28;20106;-74
2023/05/06 04:21:48;;;;;;;33.05;14.23;;;10.90;99.90;;;;;;4975772;28;20081;-74
2023/05/06 04:24:16;;;;;;;28.17;13.57;;;11.00;99.90;;;;;;4974419;28;20106;-74
2023/05/06 04:26:42;;;;;;;38.78;14.43;;;11.00;99.90;;;;;;4992410;28;20031;-74
2023/05/06 04:29:08;;;;;;;31.67;13.85;;;10.90;99.90;;;;;;4992234;28;20106;-75
2023/05/06 04:31:35;;;;;;;32.90;14.25;;;11.00;99.90;;;;;;4993103;28;20027;-73
2023/05/06 04:34:01;;;;;;;32.15;14.45;;;11.00;99.90;;;;;;4974729;28;20027;-73
2023/05/06 04:36:27;;;;;;;34.63;14.35;;;11.00;99.90;;;;;;4974741;28;20149;-73
2023/05/06 04:38:53;;;;;;;30.10;13.85;;;11.00;99.90;;;;;;4992460;28;20522;-73
2023/05/06 04:41:19;;;;;;;31.52;13.82;;;11.00;99.90;;;;;;4974770;28;20039;-73
2023/05/06 04:43:45;;;;;;;28.92;13.77;;;11.00;99.90;;;;;;4974504;28;20443;-73
2023/05/06 04:46:11;;;;;;;26.42;13.90;;;11.00;99.90;;;;;;4992558;28;20027;-75
2023/05/06 04:48:37;;;;;;;32.50;13.00;;;11.00;99.90;;;;;;4992599;28;20022;-74
2023/05/06 04:51:04;;;;;;;37.65;14.13;;;11.10;99.90;;;;;;4993258;28;20030;-73
2023/05/06 04:53:30;;;;;;;32.53;13.68;;;11.10;99.90;;;;;;4974807;28;20030;-72
2023/05/06 04:55:55;;;;;;;28.73;14.18;;;11.10;99.90;;;;;;4993227;28;20031;-75
2023/05/06 04:58:21;;;;;;;32.72;14.02;;;11.00;99.90;;;;;;4975055;28;20033;-73
2023/05/06 05:00:46;;;;;;;32.80;14.13;;;11.10;99.90;;;;;;4974983;28;20029;-74
2023/05/06 05:03:12;;;;;;;26.50;13.32;;;11.10;99.90;;;;;;4992964;28;20050;-73
2023/05/06 05:05:38;;;;;;;29.50;14.95;;;11.00;99.90;;;;;;4991816;28;20062;-73
2023/05/06 05:08:03;;;;;;;32.03;13.77;;;11.10;99.90;;;;;;4975584;28;20022;-72
2023/05/06 05:10:29;;;;;;;26.35;13.77;;;11.10;99.90;;;;;;4975174;28;20027;-71
2023/05/06 05:12:55;;;;;;;28.67;14.43;;;11.10;99.90;;;;;;4973802;28;20047;-70
2023/05/06 05:15:20;;;;;;;29.15;14.50;;;11.10;99.90;;;;;;4974909;28;20018;-72
2023/05/06 05:17:46;;;;;;;31.38;14.23;;;11.20;99.90;;;;;;4992544;28;20472;-72
2023/05/06 05:20:12;;;;;;;35.38;15.60;;;11.20;99.90;;;;;;4992041;28;20042;-72
2023/05/06 05:22:38;;;;;;;30.08;13.55;;;11.30;99.90;;;;;;4992713;28;20065;-73
2023/05/06 05:25:03;;;;;;;33.63;15.52;;;11.20;99.90;;;;;;4973788;28;20058;-72
2023/05/06 05:27:29;;;;;;;29.80;14.57;;;11.30;99.90;;;;;;4992204;28;20034;-72
2023/05/06 05:29:55;;;;;;;31.45;15.90;;;11.30;99.90;;;;;;4992007;28;20031;-72
2023/05/06 05:32:21;;;;;;;31.33;16.35;;;11.30;99.90;;;;;;4989457;28;20030;-74
2023/05/06 05:34:46;;;;;;;39.60;17.00;;;11.30;99.90;;;;;;4992122;28;20029;-73
2023/05/06 05:37:12;;;;;;;34.58;16.70;;;11.30;99.90;;;;;;4991230;28;20022;-72
2023/05/06 05:39:38;;;;;;;35.47;16.90;;;11.30;99.90;;;;;;4976437;28;20030;-71
2023/05/06 05:42:03;;;;;;;36.97;16.83;;;11.30;99.90;;;;;;4994064;28;20041;-73
2023/05/06 05:44:29;;;;;;;36.17;16.55;;;11.40;99.90;;;;;;4995232;28;20046;-73
2023/05/06 05:46:55;;;;;;;35.97;15.90;;;11.40;99.90;;;;;;4994994;28;20027;-73
2023/05/06 05:49:20;;;;;;;39.20;16.88;;;11.40;99.90;;;;;;4993230;28;20018;-72
2023/05/06 05:51:46;;;;;;;31.27;15.25;;;11.50;99.90;;;;;;4991175;28;20026;-74
2023/05/06 05:54:13;;;;;;;31.58;14.98;;;11.50;99.90;;;;;;4993123;28;20116;-75
2023/05/06 05:56:39;;;;;;;36.03;15.98;;;11.50;99.90;;;;;;4977970;28;20037;-73
2023/05/06 05:59:04;;;;;;;30.85;15.82;;;11.50;99.90;;;;;;4994787;28;20086;-74
2023/05/06 06:01:30;;;;;;;32.75;16.38;;;11.60;99.90;;;;;;4974964;28;20045;-73
2023/05/06 06:03:56;;;;;;;38.10;17.85;;;11.60;99.90;;;;;;4994953;28;20436;-73
2023/05/06 06:06:23;;;;;;;39.38;16.48;;;11.70;99.90;;;;;;4978124;28;20034;-73
2023/05/06 06:08:48;;;;;;;35.83;17.92;;;11.80;99.90;;;;;;4993550;28;20015;-74
2023/05/06 06:11:14;;;;;;;47.22;16.98;;;11.80;99.90;;;;;;4993969;28;20400;-73
2023/05/06 06:13:40;;;;;;;30.95;16.25;;;11.70;99.90;;;;;;4994334;28;20055;-73
2023/05/06 06:16:05;;;;;;;28.23;14.15;;;11.80;99.90;;;;;;4976699;28;20072;-75
2023/05/06 06:18:31;;;;;;;28.80;14.70;;;11.90;99.90;;;;;;4995133;28;20578;-73
2023/05/06 06:20:57;;;;;;;28.23;14.82;;;11.90;99.90;;;;;;4995195;28;20022;-72
2023/05/06 06:23:23;;;;;;;33.20;15.65;;;12.00;99.90;;;;;;4994291;28;20558;-73
2023/05/06 06:25:48;;;;;;;25.85;14.65;;;12.00;99.90;;;;;;4994524;28;20126;-73
2023/05/06 06:28:14;;;;;;;25.40;15.52;;;12.00;99.90;;;;;;4994962;28;20058;-72
2023/05/06 06:30:40;;;;;;;29.90;15.05;;;12.10;99.90;;;;;;4993276;28;20031;-72
2023/05/06 06:33:06;;;;;;;28.50;15.05;;;12.10;99.90;;;;;;4993275;28;20030;-72
2023/05/06 06:35:31;;;;;;;24.23;15.48;;;12.20;99.90;;;;;;4995137;28;20026;-73
2023/05/06 06:37:57;;;;;;;27.63;15.88;;;12.10;99.90;;;;;;4994003;28;20042;-73
2023/05/06 06:40:22;;;;;;;30.55;15.48;;;12.10;99.90;;;;;;4993119;28;20063;-73
2023/05/06 06:42:48;;;;;;;28.00;15.77;;;12.00;99.90;;;;;;4976961;28;20038;-74
2023/05/06 06:45:14;;;;;;;34.75;16.13;;;11.90;99.90;;;;;;4994463;28;20542;-75
2023/05/06 06:47:40;;;;;;;30.60;17.40;;;11.90;99.90;;;;;;4995334;28;20035;-74
2023/05/06 06:50:07;;;;;;;33.50;16.63;;;11.90;99.90;;;;;;4990298;28;20040;-73
2023/05/06 06:52:34;;;;;;;32.47;16.77;;;11.90;99.90;;;;;;4991403;28;20026;-74
2023/05/06 06:54:59;;;;;;;37.92;17.00;;;11.90;99.90;;;;;;4975060;28;20057;-73
2023/05/06 06:57:25;;;;;;;33.83;17.52;;;11.90;99.90;;;;;;4974711;28;20034;-72
2023/05/06 06:59:52;;;;;;;30.25;15.95;;;12.00;99.90;;;;;;4992224;28;20026;-72
2023/05/06 07:02:19;;;;;;;26.67;15.35;;;12.10;99.90;;;;;;4975528;28;20066;-73
2023/05/06 07:04:45;;;;;;;24.48;14.52;;;12.10;99.90;;;;;;4975616;28;20041;-73
2023/05/06 07:07:10;;;;;;;28.77;15.52;;;12.20;99.90;;;;;;4994359;28;20450;-72
2023/05/06 07:09:36;;;;;;;23.92;13.75;;;12.20;99.90;;;;;;4993844;28;20023;-75
2023/05/06 07:12:02;;;;;;;29.00;14.73;;;12.20;99.90;;;;;;4994742;28;20093;-73
2023/05/06 07:14:27;;;;;;;23.42;13.45;;;12.30;99.90;;;;;;4993018;28;20076;-74
2023/05/06 07:16:53;;;;;;;23.88;13.43;;;12.30;99.90;;;;;;4994661;28;20041;-72
2023/05/06 07:19:18;;;;;;;26.83;14.10;;;12.30;99.90;;;;;;4974410;28;20045;-74
2023/05/06 07:21:44;;;;;;;25.65;15.15;;;12.30;99.90;;;;;;4975236;28;20027;-74
2023/05/06 07:24:10;;;;;;;28.02;15.93;;;12.30;99.90;;;;;;4970843;28;20033;-74
2023/05/06 07:26:36;;;;;;;27.83;15.32;;;12.40;99.90;;;;;;4973020;28;20039;-72
2023/05/06 07:29:03;;;;;;;26.95;14.68;;;12.30;99.90;;;;;;4975352;28;20038;-72
2023/05/06 07:31:31;;;;;;;24.90;14.00;;;12.30;99.90;;;;;;4971953;28;20038;-73
2023/05/06 07:33:57;;;;;;;24.30;14.68;;;12.40;99.90;;;;;;4990226;28;20023;-73
2023/05/06 07:36:23;;;;;;;29.20;16.13;;;12.40;99.90;;;;;;4990659;28;20113;-73
2023/05/06 07:38:49;;;;;;;29.08;16.10;;;12.40;99.90;;;;;;4991936;28;20022;-72
2023/05/06 07:41:15;;;;;;;31.67;15.40;;;12.40;99.90;;;;;;4987884;28;20823;-73
2023/05/06 07:43:41;;;;;;;26.75;14.18;;;12.40;99.90;;;;;;4991848;28;20069;-73
2023/05/06 07:46:07;;;;;;;24.02;15.00;;;12.40;99.90;;;;;;4991275;28;20027;-75
2023/05/06 07:48:32;;;;;;;29.67;15.70;;;12.40;99.90;;;;;;4973437;28;20053;-72
2023/05/06 07:50:58;;;;;;;34.25;15.85;;;12.50;99.90;;;;;;4972296;28;20391;-73
2023/05/06 07:53:24;;;;;;;30.52;14.73;;;12.60;99.90;;;;;;4974934;28;20054;-74
2023/05/06 07:55:51;;;;;;;27.65;14.98;;;12.60;99.90;;;;;;4975443;28;20066;-72
2023/05/06 07:58:17;;;;;;;31.50;15.63;;;12.60;99.90;;;;;;4976300;28;20062;-72
2023/05/06 08:00:43;;;;;;;28.25;15.10;;;12.70;99.90;;;;;;4992417;28;20030;-71
2023/05/06 08:03:08;;;;;;;24.73;14.95;;;12.70;99.90;;;;;;4974112;28;20046;-72
2023/05/06 08:05:34;;;;;;;28.23;14.52;;;12.80;99.90;;;;;;4991173;28;20037;-71
2023/05/06 08:08:00;;;;;;;29.00;14.98;;;12.90;99.90;;;;;;4992054;28;20038;-72
2023/05/06 08:10:25;;;;;;;20.60;13.43;;;12.90;99.90;;;;;;4987521;28;20043;-72
2023/05/06 08:12:51;;;;;;;21.23;13.70;;;13.00;99.90;;;;;;4988953;28;20079;-71
2023/05/06 08:15:17;;;;;;;23.65;15.10;;;13.10;99.90;;;;;;4987229;28;20027;-74
2023/05/06 08:17:42;;;;;;;24.92;15.15;;;13.20;99.90;;;;;;4974755;28;20023;-73
2023/05/06 08:20:09;;;;;;;25.77;13.23;;;13.20;99.90;;;;;;4988103;28;20061;-72
2023/05/06 08:22:34;;;;;;;21.65;13.27;;;13.30;99.90;;;;;;4973525;28;20048;-73
2023/05/06 08:25:00;;;;;;;26.67;14.55;;;13.30;99.90;;;;;;4970229;28;20047;-71
2023/05/06 08:27:26;;;;;;;22.17;14.00;;;13.30;99.90;;;;;;4986044;28;20034;-74
2023/05/06 08:29:51;;;;;;;23.67;13.77;;;13.30;99.90;;;;;;4965011;28;20026;-71
2023/05/06 08:32:17;;;;;;;25.35;14.85;;;13.30;99.90;;;;;;4988287;28;20653;-71
2023/05/06 08:34:42;;;;;;;25.52;14.32;;;13.20;99.90;;;;;;4987899;28;20034;-70
2023/05/06 08:37:08;;;;;;;27.55;13.88;;;13.20;99.90;;;;;;4972947;28;20088;-71
2023/05/06 08:39:34;;;;;;;26.10;14.98;;;13.20;99.90;;;;;;4990922;28;20035;-70
2023/05/06 08:42:01;;;;;;;30.50;15.57;;;13.30;99.90;;;;;;4975318;28;20031;-70
2023/05/06 08:44:28;;;;;;;24.83;14.93;;;13.10;99.90;;;;;;4974268;28;20372;-71
2023/05/06 08:46:54;;;;;;;22.42;13.75;;;13.10;99.90;;;;;;4975114;28;20023;-68
2023/05/06 08:49:20;;;;;;;24.95;13.98;;;13.10;99.90;;;;;;4973685;28;20297;-70
2023/05/06 08:51:49;;;;;;;30.83;15.38;;;13.20;99.90;;;;;;4971535;28;20038;-70
2023/05/06 08:54:16;;;;;;;26.33;15.60;;;13.30;99.90;;;;;;4971606;28;20030;-71
2023/05/06 08:56:47;;;;;;;30.42;15.50;;;13.40;99.90;;;;;;4991958;28;20033;-70
2023/05/06 08:59:12;;;;;;;26.23;14.13;;;13.50;99.90;;;;;;4991666;28;20547;-72
2023/05/06 09:01:39;;;;;;;27.13;13.85;;;13.60;99.90;;;;;;4991320;28;20038;-71
2023/05/06 09:04:06;;;;;;;26.13;13.52;;;13.70;99.90;;;;;;4974430;28;20039;-72
2023/05/06 09:06:31;;;;;;;22.70;13.93;;;13.70;99.90;;;;;;4992460;28;20027;-71
2023/05/06 09:08:57;;;;;;;24.85;13.50;;;13.90;99.90;;;;;;4973426;28;20033;-70
2023/05/06 09:11:28;;;;;;;25.52;14.23;;;13.90;99.90;;;;;;4991457;28;20038;-69
2023/05/06 09:14:11;;;;;;;22.90;14.82;;;13.90;99.90;;;;;;4988573;28;20026;-73
2023/05/06 09:16:38;;;;;;;26.15;13.50;;;14.00;99.90;;;;;;4989528;28;20030;-74
2023/05/06 09:19:04;;;;;;;25.73;14.18;;;14.00;99.90;;;;;;4989729;28;20073;-72
2023/05/06 09:21:38;;;;;;;26.17;14.32;;;14.00;99.90;;;;;;4988403;28;20026;-71
2023/05/06 09:24:05;;;;;;;23.02;14.90;;;14.10;99.90;;;;;;4990411;28;20039;-70
2023/05/06 09:26:33;;;;;;;27.33;14.45;;;14.10;99.90;;;;;;4988927;28;20042;-70
2023/05/06 09:28:59;;;;;;;23.98;14.20;;;14.00;99.90;;;;;;4970779;28;20093;-70
2023/05/06 09:31:25;;;;;;;22.88;14.95;;;14.10;99.90;;;;;;4970754;28;20236;-69
2023/05/06 09:33:53;;;;;;;28.08;14.57;;;14.10;99.90;;;;;;4988333;28;20046;-71
2023/05/06 09:36:20;;;;;;;27.10;14.43;;;14.10;99.90;;;;;;4986694;28;20048;-70
2023/05/06 09:38:46;;;;;;;23.88;14.00;;;14.20;99.90;;;;;;4988609;28;20030;-69
2023/05/06 09:41:12;;;;;;;23.92;14.63;;;14.30;99.90;;;;;;4987519;28;20015;-70
2023/05/06 09:43:43;;;;;;;20.40;13.18;;;14.50;99.90;;;;;;4969919;28;20034;-70
2023/05/06 09:46:10;;;;;;;22.17;13.30;;;14.70;99.90;;;;;;4988516;28;20096;-70
2023/05/06 09:48:36;;;;;;;20.77;13.38;;;14.80;99.90;;;;;;4991158;28;20375;-68
2023/05/06 09:51:03;;;;;;;23.55;12.25;;;15.00;99.90;;;;;;4970881;28;20038;-69
2023/05/06 09:53:30;;;;;;;20.20;11.57;;;15.10;99.90;;;;;;4973456;28;20519;-70
2023/05/06 09:55:57;;;;;;;16.35;11.48;;;15.20;99.90;;;;;;4991724;28;20027;-71
2023/05/06 09:58:24;;;;;;;20.27;11.48;;;15.20;99.90;;;;;;4990386;28;20032;-71
2023/05/06 10:00:51;;;;;;;18.83;12.30;;;15.20;99.90;;;;;;4971240;28;20033;-71
2023/05/06 10:03:19;;;;;;;18.27;11.80;;;15.20;99.90;;;;;;4990656;28;20451;-69
2023/05/06 10:05:45;;;;;;;15.88;11.20;;;15.20;99.90;;;;;;4989503;28;20053;-70
2023/05/06 10:08:17;;;;;;;18.13;10.95;;;15.20;99.90;;;;;;4989220;28;20027;-70
2023/05/06 10:10:45;;;;;;;16.10;10.48;;;15.30;99.90;;;;;;4990247;28;20049;-69
2023/05/06 10:13:12;;;;;;;21.27;11.75;;;15.40;99.90;;;;;;4989846;28;20086;-70
2023/05/06 10:15:38;;;;;;;19.20;12.15;;;15.40;99.90;;;;;;4992018;28;20027;-70
2023/05/06 10:18:06;;;;;;;23.63;13.07;;;15.60;99.90;;;;;;4974819;28;20118;-70
2023/05/06 10:20:34;;;;;;;20.67;12.02;;;15.60;99.90;;;;;;4965853;28;20766;-69
2023/05/06 10:23:11;;;;;;;21.27;11.85;;;15.60;99.90;;;;;;4985302;28;20038;-70
2023/05/06 10:25:42;;;;;;;18.50;11.90;;;15.60;99.90;;;;;;4970564;28;20027;-70
2023/05/06 10:28:09;;;;;;;20.55;12.55;;;15.60;99.90;;;;;;4991575;28;20094;-69
2023/05/06 10:30:38;;;;;;;19.15;12.25;;;15.60;99.90;;;;;;4994164;28;20042;-70
2023/05/06 10:33:10;;;;;;;16.83;11.52;;;15.60;99.90;;;;;;4993893;28;20027;-70
2023/05/06 10:35:39;;;;;;;17.75;11.55;;;15.60;99.90;;;;;;4993638;28;20027;-68
2023/05/06 10:38:18;;;;;;;17.95;11.95;;;15.70;99.90;;;;;;4971752;28;20026;-68
2023/05/06 10:40:45;;;;;;;19.23;11.02;;;15.70;99.90;;;;;;4992639;28;20030;-67
2023/05/06 10:43:29;;;;;;;18.33;11.65;;;15.80;99.90;;;;;;4994531;28;20062;-70
2023/05/06 10:46:05;;;;;;;15.50;10.98;;;15.80;99.90;;;;;;4995077;28;20066;-69
2023/05/06 10:48:31;;;;;;;19.95;11.35;;;15.80;99.90;;;;;;4990668;28;20027;-69
2023/05/06 10:51:15;;;;;;;21.95;11.43;;;15.90;99.90;;;;;;4976356;28;20491;-71
2023/05/06 10:54:07;;;;;;;19.77;11.43;;;15.90;99.90;;;;;;4994990;28;20027;-70
2023/05/06 10:56:34;;;;;;;20.27;11.48;;;15.80;99.90;;;;;;4970624;28;20027;-69
2023/05/06 10:59:08;;;;;;;20.45;11.80;;;15.80;99.90;;;;;;4994778;28;20029;-68
2023/05/06 11:01:35;;;;;;;14.70;9.90;;;15.80;99.90;;;;;;4994029;28;20030;-72
2023/05/06 11:04:05;;;;;;;22.08;10.90;;;15.80;99.90;;;;;;4992102;28;20107;-68
2023/05/06 11:06:43;;;;;;;15.10;10.48;;;16.30;99.90;;;;;;4991398;28;20022;-68
2023/05/06 11:09:19;;;;;;;16.65;10.77;;;16.70;99.90;;;;;;4974385;28;20070;-70
2023/05/06 11:12:05;;;;;;;18.98;11.27;;;16.70;99.90;;;;;;4991144;28;20061;-67
2023/05/06 11:14:37;;;;;;;19.10;10.85;;;16.80;99.90;;;;;;4975789;28;20030;-68
2023/05/06 11:17:05;;;;;;;15.38;10.18;;;16.90;99.90;;;;;;4990187;28;20057;-71
2023/05/06 11:19:32;;;;;;;19.73;10.50;;;16.80;99.90;;;;;;4989077;28;20058;-70
2023/05/06 11:22:03;;;;;;;14.23;10.15;;;16.80;99.90;;;;;;4992673;28;20090;-68
2023/05/06 11:24:40;;;;;;;19.13;10.48;;;16.90;99.90;;;;;;4990664;28;20022;-68
2023/05/06 11:27:06;;;;;;;12.80;8.80;;;17.10;99.90;;;;;;4989143;28;20069;-71
2023/05/06 11:29:32;;;;;;;16.52;8.55;;;17.40;99.90;;;;;;4989690;28;20022;-69
2023/05/06 11:31:57;;;;;;;16.15;9.10;;;17.60;99.90;;;;;;4973834;28;20030;-68
2023/05/06 11:34:28;;;;;;;13.18;8.73;;;17.60;99.90;;;;;;4991684;28;20022;-68
2023/05/06 11:37:04;;;;;;;13.32;8.60;;;17.80;99.90;;;;;;4991656;28;20033;-68
2023/05/06 11:39:32;;;;;;;14.40;9.73;;;18.20;99.90;;;;;;4993611;28;20018;-68
2023/05/06 11:42:05;;;;;;;17.48;9.27;;;18.40;99.90;;;;;;4991324;28;20452;-68
2023/05/06 11:44:33;;;;;;;14.27;9.10;;;18.40;99.90;;;;;;4992063;28;20023;-68
2023/05/06 11:47:01;;;;;;;14.55;8.88;;;18.40;99.90;;;;;;4974692;28;20026;-68
2023/05/06 11:49:27;;;;;;;15.30;8.63;;;18.40;99.90;;;;;;4991419;28;20094;-67
2023/05/06 11:51:54;;;;;;;15.57;8.90;;;18.60;99.90;;;;;;4974897;28;20035;-69
2023/05/06 11:54:21;;;;;;;14.85;8.27;;;18.80;99.90;;;;;;4991302;28;20074;-68
2023/05/06 11:56:50;;;;;;;14.15;8.13;;;19.00;99.90;;;;;;4990444;28;20018;-69
2023/05/06 11:59:17;;;;;;;15.48;8.50;;;19.40;99.90;;;;;;4983852;28;20036;-71
2023/05/06 12:01:44;;;;;;;14.68;7.93;;;19.70;99.90;;;;;;4992666;28;20022;-68
2023/05/06 12:04:11;;;;;;;11.95;8.57;;;19.70;99.90;;;;;;4991931;28;20038;-70
2023/05/06 12:06:37;;;;;;;13.43;8.20;;;19.50;99.90;;;;;;4993349;28;20076;-69
2023/05/06 12:09:04;;;;;;;15.98;9.32;;;19.20;99.90;;;;;;4992907;28;20033;-70
2023/05/06 12:11:31;;;;;;;10.90;7.45;;;19.10;99.90;;;;;;4992748;28;20117;-70
2023/05/06 12:13:57;;;;;;;15.77;8.48;;;18.80;99.90;;;;;;4993150;28;20038;-67
2023/05/06 12:16:24;;;;;;;14.35;9.18;;;18.70;99.90;;;;;;4992912;28;20377;-70
2023/05/06 12:18:51;;;;;;;13.95;8.10;;;18.60;99.90;;;;;;4993099;28;20027;-68
2023/05/06 12:21:24;;;;;;;14.00;8.75;;;18.40;99.90;;;;;;4993404;28;20030;-69
2023/05/06 12:23:55;;;;;;;13.77;8.23;;;18.20;99.90;;;;;;4992764;28;20123;-69
2023/05/06 12:26:21;;;;;;;14.73;7.95;;;18.10;99.90;;;;;;4993384;28;20081;-70
2023/05/06 12:29:03;;;;;;;13.98;8.10;;;17.90;99.90;;;;;;4992839;28;20031;-68